createdAt,value
2022-12-14T00:01:48.919Z,14.85
2022-12-14T00:04:17.360Z,12.60
2022-12-14T00:06:45.070Z,12.25
2022-12-14T00:09:12.359Z,12.73
2022-12-14T00:11:39.656Z,12.35
2022-12-14T00:14:12.180Z,13.82
2022-12-14T00:16:39.408Z,15.68
2022-12-14T00:19:06.669Z,13.23
2022-12-14T00:21:34.406Z,11.20
2022-12-14T00:24:01.818Z,10.88
2022-12-14T00:26:31.445Z,12.00
2022-12-14T00:29:00.921Z,12.65
2022-12-14T00:31:29.135Z,12.30
2022-12-14T00:33:56.636Z,11.60
2022-12-14T00:36:24.042Z,11.15
2022-12-14T00:38:51.430Z,10.25
2022-12-14T00:41:18.630Z,13.90
2022-12-14T00:43:49.703Z,12.63
2022-12-14T00:46:18.104Z,10.57
2022-12-14T00:48:48.288Z,9.43
2022-12-14T00:51:15.560Z,9.45
2022-12-14T00:53:44.691Z,9.60
2022-12-14T00:56:12.219Z,15.77
2022-12-14T00:58:53.476Z,7.93
2022-12-14T01:01:23.007Z,10.95
2022-12-14T01:03:50.975Z,10.98
2022-12-14T01:06:21.429Z,9.65
2022-12-14T01:08:49.405Z,10.57
2022-12-14T01:11:17.002Z,9.18
2022-12-14T01:13:44.365Z,10.45
2022-12-14T01:16:14.593Z,7.85
2022-12-14T01:18:43.478Z,7.07
2022-12-14T01:21:12.248Z,9.50
2022-12-14T01:23:44.153Z,7.67
2022-12-14T01:26:15.584Z,9.93
2022-12-14T01:28:43.484Z,9.32
2022-12-14T01:31:20.035Z,10.43
2022-12-14T01:33:48.387Z,8.43
2022-12-14T01:36:18.963Z,10.63
2022-12-14T01:38:46.997Z,8.73
2022-12-14T01:41:36.761Z,10.68
2022-12-14T01:44:24.282Z,8.80
2022-12-14T01:46:56.709Z,10.05
2022-12-14T01:49:36.738Z,7.63
2022-12-14T01:52:17.207Z,9.38
2022-12-14T01:54:57.254Z,9.02
2022-12-14T01:57:37.238Z,8.57
2022-12-14T02:00:07.715Z,8.30
2022-12-14T02:02:41.631Z,10.80
2022-12-14T02:05:11.032Z,9.68
2022-12-14T02:07:41.228Z,8.57
2022-12-14T02:10:09.369Z,8.55
2022-12-14T02:12:44.887Z,9.48
2022-12-14T02:15:14.776Z,7.95
2022-12-14T02:17:44.973Z,8.40
2022-12-14T02:20:14.178Z,8.32
2022-12-14T02:23:22.303Z,7.97
2022-12-14T02:26:14.336Z,9.68
2022-12-14T02:29:19.346Z,9.88
2022-12-14T02:32:30.577Z,7.50
2022-12-14T02:35:22.322Z,7.30
2022-12-14T02:37:58.293Z,9.07
2022-12-14T02:40:55.444Z,7.60
2022-12-14T02:43:42.171Z,8.70
2022-12-14T02:46:09.468Z,6.90
2022-12-14T02:48:49.501Z,8.75
2022-12-14T02:51:41.008Z,7.43
2022-12-14T02:54:36.447Z,6.13
2022-12-14T02:57:36.403Z,7.53
2022-12-14T03:00:05.896Z,8.85
2022-12-14T03:02:42.396Z,7.75
2022-12-14T03:05:10.449Z,7.38
2022-12-14T03:07:52.699Z,10.32
2022-12-14T03:10:45.866Z,8.20
2022-12-14T03:13:23.794Z,8.75
2022-12-14T03:16:15.425Z,9.73
2022-12-14T03:18:54.007Z,8.05
2022-12-14T03:21:31.972Z,9.60
2022-12-14T03:24:02.420Z,9.13
2022-12-14T03:26:35.834Z,8.73
2022-12-14T03:29:14.490Z,9.63
2022-12-14T03:32:05.537Z,11.32
2022-12-14T03:35:28.133Z,9.88
2022-12-14T03:38:01.829Z,9.23
2022-12-14T03:40:37.734Z,7.68
2022-12-14T03:43:25.138Z,9.55
2022-12-14T03:45:55.578Z,10.02
2022-12-14T03:48:30.628Z,8.15
2022-12-14T03:51:10.093Z,10.95
2022-12-14T03:53:57.540Z,10.35
2022-12-14T03:56:39.014Z,11.60
2022-12-14T03:59:17.753Z,9.13
2022-12-14T04:01:54.474Z,12.95
2022-12-14T04:04:32.838Z,13.25
2022-12-14T04:07:15.670Z,20.38
2022-12-14T04:10:29.836Z,21.33
2022-12-14T04:13:25.668Z,23.00
2022-12-14T04:16:17.392Z,25.15
2022-12-14T04:19:02.079Z,26.40
2022-12-14T04:21:48.231Z,32.13
2022-12-14T04:24:42.468Z,29.77
2022-12-14T04:27:34.449Z,32.00
2022-12-14T04:30:03.208Z,36.65
2022-12-14T04:32:33.362Z,41.08
2022-12-14T04:35:21.165Z,43.85
2022-12-14T04:38:37.723Z,45.28
2022-12-14T04:41:09.939Z,45.80
2022-12-14T04:43:42.303Z,41.65
2022-12-14T04:46:13.769Z,42.67
2022-12-14T04:48:54.241Z,41.08
2022-12-14T04:51:37.991Z,39.83
2022-12-14T04:54:25.254Z,42.20
2022-12-14T04:57:44.715Z,40.80
2022-12-14T05:00:13.090Z,44.65
2022-12-14T05:02:50.439Z,49.40
2022-12-14T05:05:22.352Z,48.97
2022-12-14T05:07:53.212Z,52.25
2022-12-14T05:10:47.012Z,50.40
2022-12-14T05:13:17.425Z,51.10
2022-12-14T05:15:57.631Z,49.45
2022-12-14T05:18:25.827Z,56.13
2022-12-14T05:20:55.340Z,54.37
2022-12-14T05:23:48.283Z,51.58
2022-12-14T05:26:15.539Z,50.90
2022-12-14T05:28:48.810Z,56.28
2022-12-14T05:31:17.656Z,55.75
2022-12-14T05:33:44.944Z,54.13
2022-12-14T05:36:12.260Z,55.87
2022-12-14T05:38:43.456Z,57.50
2022-12-14T05:41:10.745Z,61.50
2022-12-14T05:43:38.055Z,58.00
2022-12-14T05:46:05.808Z,56.58
2022-12-14T05:48:33.794Z,53.60
2022-12-14T05:51:09.190Z,52.60
2022-12-14T05:53:36.825Z,55.45
2022-12-14T05:56:07.323Z,48.30
2022-12-14T05:58:35.546Z,45.40
2022-12-14T06:01:05.967Z,44.07
2022-12-14T06:03:33.588Z,43.65
2022-12-14T06:08:46.771Z,42.97
2022-12-14T06:11:24.399Z,44.60
2022-12-14T06:13:51.900Z,47.33
2022-12-14T06:16:22.130Z,54.78
2022-12-14T06:21:35.873Z,59.13
2022-12-14T06:24:06.322Z,61.97
2022-12-14T06:26:40.873Z,65.07
2022-12-14T06:29:13.769Z,61.07
2022-12-14T06:31:41.449Z,67.57
2022-12-14T06:34:12.224Z,70.38
2022-12-14T06:36:41.934Z,60.13
2022-12-14T06:39:13.100Z,62.40
2022-12-14T06:41:41.381Z,70.55
2022-12-14T06:44:13.200Z,63.78
2022-12-14T06:46:41.547Z,66.68
2022-12-14T06:49:14.231Z,65.88
2022-12-14T06:51:42.506Z,68.93
2022-12-14T06:54:12.130Z,72.15
2022-12-14T06:56:40.626Z,68.00
2022-12-14T06:59:11.254Z,64.88
2022-12-14T07:01:40.055Z,68.75
2022-12-14T07:04:08.603Z,69.82
2022-12-14T07:06:42.457Z,68.95
2022-12-14T07:09:14.120Z,64.22
2022-12-14T07:11:41.437Z,72.75
2022-12-14T07:14:17.405Z,69.03
2022-12-14T07:19:49.109Z,67.75
2022-12-14T07:22:36.847Z,69.32
2022-12-14T07:25:04.646Z,73.15
2022-12-14T07:27:31.918Z,68.50
2022-12-14T07:32:54.090Z,64.72
2022-12-14T07:35:21.343Z,62.63
2022-12-14T07:37:49.682Z,65.45
2022-12-14T07:40:19.850Z,70.97
2022-12-14T07:42:50.731Z,65.03
2022-12-14T07:45:19.454Z,69.95
2022-12-14T07:47:46.840Z,72.68
2022-12-14T07:50:14.191Z,66.88
2022-12-14T07:52:45.115Z,61.53
2022-12-14T07:55:12.449Z,70.50
2022-12-14T07:57:39.852Z,66.72
2022-12-14T08:00:13.818Z,66.50
2022-12-14T08:02:41.384Z,65.07
2022-12-14T08:08:27.316Z,62.58
2022-12-14T08:11:06.793Z,62.45
2022-12-14T08:13:34.778Z,59.05
2022-12-14T08:16:04.720Z,60.63
2022-12-14T08:18:37.477Z,59.80
2022-12-14T08:21:10.090Z,59.00
2022-12-14T08:23:37.934Z,61.63
2022-12-14T08:26:06.383Z,60.88
2022-12-14T08:28:35.434Z,53.38
2022-12-14T08:31:16.277Z,58.58
2022-12-14T08:33:47.016Z,61.50
2022-12-14T08:36:16.978Z,60.83
2022-12-14T08:38:57.751Z,61.92
2022-12-14T08:41:26.428Z,64.18
2022-12-14T08:43:56.254Z,61.90
2022-12-14T08:46:25.528Z,64.10
2022-12-14T08:48:59.357Z,57.10
2022-12-14T08:51:27.994Z,57.63
2022-12-14T08:53:56.315Z,59.38
2022-12-14T08:56:26.811Z,54.15
2022-12-14T08:59:29.972Z,50.10
2022-12-14T09:04:47.328Z,51.95
2022-12-14T09:07:17.039Z,50.95
2022-12-14T09:09:47.481Z,54.03
2022-12-14T09:12:20.910Z,53.65
2022-12-14T09:14:49.553Z,54.15
2022-12-14T09:17:17.898Z,56.55
2022-12-14T09:19:45.297Z,58.65
2022-12-14T09:22:13.403Z,57.95
2022-12-14T09:24:40.864Z,58.03
2022-12-14T09:27:10.498Z,58.33
2022-12-14T09:29:40.556Z,57.22
2022-12-14T09:32:08.149Z,54.33
2022-12-14T09:34:35.800Z,53.55
2022-12-14T09:37:07.328Z,56.33
2022-12-14T09:39:35.183Z,51.58
2022-12-14T09:42:10.177Z,57.05
2022-12-14T09:44:46.434Z,51.40
2022-12-14T09:50:07.237Z,52.85
2022-12-14T09:52:40.299Z,51.67
2022-12-14T09:55:47.551Z,48.22
2022-12-14T09:58:15.124Z,45.17
2022-12-14T10:00:53.363Z,43.30
2022-12-14T10:03:48.550Z,41.28
2022-12-14T10:06:21.712Z,44.03
2022-12-14T10:09:21.212Z,47.92
2022-12-14T10:11:57.398Z,40.92
2022-12-14T10:15:23.239Z,39.67
2022-12-14T10:19:18.717Z,43.78
2022-12-14T10:21:53.032Z,44.75
2022-12-14T10:24:24.195Z,42.22
2022-12-14T10:26:55.863Z,42.17
2022-12-14T10:29:34.856Z,39.10
2022-12-14T10:32:39.082Z,43.10
2022-12-14T10:35:40.401Z,45.75
2022-12-14T10:38:36.572Z,36.65
2022-12-14T10:41:15.438Z,41.03
2022-12-14T10:43:59.303Z,43.30
2022-12-14T10:46:37.707Z,39.80
2022-12-14T10:49:17.201Z,39.10
2022-12-14T10:52:12.247Z,37.97
2022-12-14T10:54:47.128Z,39.30
2022-12-14T10:57:19.963Z,42.17
2022-12-14T11:00:05.630Z,38.50
2022-12-14T11:02:39.626Z,40.22
2022-12-14T11:05:18.260Z,33.30
2022-12-14T11:07:49.600Z,33.30
2022-12-14T11:10:37.083Z,32.00
2022-12-14T11:13:13.523Z,32.75
2022-12-14T11:16:04.979Z,31.25
2022-12-14T11:18:37.360Z,29.20
2022-12-14T11:21:06.082Z,27.92
2022-12-14T11:23:45.908Z,27.45
2022-12-14T11:26:27.871Z,26.58
2022-12-14T11:28:58.758Z,26.30
2022-12-14T11:31:55.298Z,22.08
2022-12-14T11:34:37.794Z,23.67
2022-12-14T11:37:23.051Z,22.15
2022-12-14T11:39:53.108Z,20.05
2022-12-14T11:42:21.480Z,19.55
2022-12-14T11:44:49.996Z,23.98
2022-12-14T11:47:23.483Z,29.05
2022-12-14T11:49:54.908Z,22.83
2022-12-14T11:52:28.833Z,22.40
2022-12-14T11:55:01.622Z,24.45
2022-12-14T11:57:34.250Z,23.80
2022-12-14T12:00:22.775Z,22.10
2022-12-14T12:03:08.665Z,20.58
2022-12-14T12:05:42.953Z,20.00
2022-12-14T12:08:26.759Z,24.35
2022-12-14T12:11:02.126Z,20.75
2022-12-14T12:13:35.435Z,22.00
2022-12-14T12:16:08.663Z,23.67
2022-12-14T12:18:53.914Z,23.00
2022-12-14T12:21:33.349Z,22.70
2022-12-14T12:24:41.661Z,23.83
2022-12-14T12:27:18.869Z,23.08
2022-12-14T12:29:51.632Z,23.92
2022-12-14T12:32:27.480Z,21.58
2022-12-14T12:35:11.299Z,21.88
2022-12-14T12:37:47.823Z,19.63
2022-12-14T12:40:22.385Z,23.17
2022-12-14T12:43:28.258Z,26.65
2022-12-14T12:46:30.370Z,26.77
2022-12-14T12:49:12.854Z,24.55
2022-12-14T12:51:54.285Z,24.63
2022-12-14T12:54:32.442Z,21.40
2022-12-14T12:57:02.464Z,26.27
2022-12-14T12:59:29.614Z,26.23
2022-12-14T13:02:31.619Z,25.58
2022-12-14T13:05:16.551Z,26.83
2022-12-14T13:08:06.538Z,24.73
2022-12-14T13:10:50.562Z,24.50
2022-12-14T13:13:30.642Z,27.92
2022-12-14T13:16:10.554Z,25.35
2022-12-14T13:21:50.049Z,24.77
2022-12-14T13:24:20.364Z,29.95
2022-12-14T13:27:12.300Z,27.20
2022-12-14T13:30:09.722Z,24.92
2022-12-14T13:33:09.123Z,36.45
2022-12-14T13:35:45.478Z,28.75
2022-12-14T13:38:33.667Z,28.65
2022-12-14T13:41:07.475Z,27.40
2022-12-14T13:43:52.921Z,21.38
2022-12-14T13:46:21.866Z,21.05
2022-12-14T13:48:51.839Z,20.42
2022-12-14T13:51:37.409Z,35.35
2022-12-14T13:54:27.788Z,19.50
2022-12-14T13:57:08.172Z,21.40
2022-12-14T13:59:41.453Z,23.23
2022-12-14T14:02:31.942Z,24.60
2022-12-14T14:05:21.452Z,21.98
2022-12-14T14:08:32.177Z,21.30
2022-12-14T14:11:39.168Z,49.72
2022-12-14T14:14:38.001Z,34.45
2022-12-14T14:17:27.123Z,31.15
2022-12-14T14:19:56.873Z,27.58
2022-12-14T14:22:29.891Z,25.52
2022-12-14T14:25:01.409Z,33.65
2022-12-14T14:27:50.630Z,31.00
2022-12-14T14:30:29.556Z,29.45
2022-12-14T14:33:48.044Z,29.42
2022-12-14T14:36:33.375Z,28.25
2022-12-14T14:39:03.109Z,25.58
2022-12-14T14:41:39.953Z,29.33
2022-12-14T14:44:27.983Z,28.38
2022-12-14T14:46:57.252Z,27.98
2022-12-14T14:49:39.429Z,30.73
2022-12-14T14:52:37.608Z,30.38
2022-12-14T14:55:53.200Z,26.60
2022-12-14T14:58:32.040Z,23.60
2022-12-14T15:01:08.080Z,24.05
2022-12-14T15:04:00.780Z,20.25
2022-12-14T15:06:43.998Z,19.92
2022-12-14T15:09:33.136Z,17.23
2022-12-14T15:12:18.460Z,21.33
2022-12-14T15:14:52.840Z,15.40
2022-12-14T15:17:23.987Z,15.45
2022-12-14T15:20:13.216Z,14.30
2022-12-14T15:22:43.473Z,15.85
2022-12-14T15:25:17.286Z,14.82
2022-12-14T15:27:46.506Z,13.27
2022-12-14T15:30:18.875Z,14.32
2022-12-14T15:32:57.880Z,16.80
2022-12-14T15:35:33.123Z,13.02
2022-12-14T15:38:07.629Z,13.60
2022-12-14T15:40:35.549Z,13.95
2022-12-14T15:43:30.707Z,13.65
2022-12-14T15:46:04.312Z,12.15
2022-12-14T15:48:34.584Z,12.68
2022-12-14T15:51:05.199Z,13.23
2022-12-14T15:53:39.583Z,10.10
2022-12-14T15:56:21.957Z,14.77
2022-12-14T15:58:49.380Z,12.63
2022-12-14T16:01:43.431Z,11.13
2022-12-14T16:04:16.711Z,17.33
2022-12-14T16:06:51.253Z,12.57
2022-12-14T16:09:27.791Z,12.02
2022-12-14T16:19:13.958Z,13.63
2022-12-14T16:21:50.909Z,14.43
2022-12-14T16:24:26.475Z,14.43
2022-12-14T16:26:59.311Z,14.77
2022-12-14T16:29:32.305Z,13.13
2022-12-14T16:32:17.632Z,16.70
2022-12-14T16:35:00.202Z,13.73
2022-12-14T16:37:33.010Z,12.00
2022-12-14T16:40:01.006Z,14.30
2022-12-14T16:42:31.809Z,17.90
2022-12-14T16:44:59.082Z,21.73
2022-12-14T16:47:46.797Z,23.92
2022-12-14T16:50:55.976Z,30.95
2022-12-14T16:53:20.906Z,27.75
2022-12-14T16:56:03.912Z,31.75
2022-12-14T16:58:31.843Z,34.05
2022-12-14T17:01:06.199Z,40.63
2022-12-14T17:03:43.080Z,40.60
2022-12-14T17:06:27.974Z,41.22
2022-12-14T17:08:55.324Z,43.95
2022-12-14T17:14:03.898Z,49.72
2022-12-14T17:16:33.252Z,44.53
2022-12-14T17:19:02.349Z,39.70
2022-12-14T17:21:30.061Z,44.67
2022-12-14T17:23:57.889Z,42.55
2022-12-14T17:26:30.844Z,43.70
2022-12-14T17:28:58.573Z,43.40
2022-12-14T17:31:41.852Z,40.75
2022-12-14T17:34:16.963Z,39.35
2022-12-14T17:36:50.339Z,44.53
2022-12-14T17:39:45.619Z,43.15
2022-12-14T17:42:15.108Z,40.80
2022-12-14T17:44:45.870Z,39.75
2022-12-14T17:47:14.024Z,43.33
2022-12-14T17:49:42.284Z,41.72
2022-12-14T17:52:23.756Z,38.38
2022-12-14T17:55:01.331Z,43.47
2022-12-14T17:57:28.628Z,44.47
2022-12-14T18:00:14.363Z,43.67
2022-12-14T18:02:42.524Z,40.83
2022-12-14T18:05:18.607Z,44.40
2022-12-14T18:07:45.985Z,46.72
2022-12-14T18:10:18.369Z,48.22
2022-12-14T18:12:45.729Z,47.05
2022-12-14T18:15:23.331Z,50.65
2022-12-14T18:17:51.604Z,49.20
2022-12-14T18:20:20.620Z,49.58
2022-12-14T18:22:50.016Z,44.85
2022-12-14T18:25:31.894Z,42.58
2022-12-14T18:28:01.145Z,52.65
2022-12-14T18:30:32.125Z,46.67
2022-12-14T18:33:04.279Z,50.40
2022-12-14T18:35:33.193Z,49.30
2022-12-14T18:38:00.724Z,45.95
2022-12-14T18:40:30.178Z,45.03
2022-12-14T18:43:00.304Z,48.83
2022-12-14T18:45:30.353Z,38.38
2022-12-14T18:47:59.045Z,34.70
2022-12-14T18:50:27.237Z,27.45
2022-12-14T18:52:58.440Z,61.40
2022-12-14T18:55:28.876Z,38.80
2022-12-14T18:57:58.183Z,32.90
2022-12-14T19:00:29.251Z,25.25
2022-12-14T19:02:57.803Z,24.05
2022-12-14T19:05:26.533Z,26.55
2022-12-14T19:07:55.561Z,25.20
2022-12-14T19:10:25.739Z,21.77
2022-12-14T19:12:53.353Z,25.25
2022-12-14T19:15:32.479Z,26.00
2022-12-14T19:18:00.448Z,23.25
2022-12-14T19:20:29.369Z,26.75
2022-12-14T19:22:57.436Z,30.70
2022-12-14T19:25:25.147Z,31.80
2022-12-14T19:30:46.277Z,33.78
2022-12-14T19:33:14.982Z,34.40
2022-12-14T19:35:43.077Z,36.35
2022-12-14T19:38:14.530Z,36.00
2022-12-14T19:40:42.809Z,38.72
2022-12-14T19:43:10.266Z,41.75
2022-12-14T19:45:39.515Z,43.58
2022-12-14T19:48:12.714Z,41.03
2022-12-14T19:50:40.499Z,38.40
2022-12-14T19:53:07.906Z,36.20
2022-12-14T19:55:35.506Z,38.83
2022-12-14T19:58:02.908Z,35.67
2022-12-14T20:00:30.946Z,37.92
2022-12-14T20:02:58.361Z,36.67
2022-12-14T20:05:25.886Z,37.42
2022-12-14T20:07:53.207Z,36.78
2022-12-14T20:10:20.514Z,28.23
2022-12-14T20:12:47.818Z,32.47
2022-12-14T20:15:15.201Z,30.33
2022-12-14T20:17:42.465Z,26.45
2022-12-14T20:20:10.408Z,25.90
2022-12-14T20:22:37.632Z,33.08
2022-12-14T20:25:09.444Z,34.42
2022-12-14T20:27:40.619Z,24.35
2022-12-14T20:30:09.356Z,25.63
2022-12-14T20:32:36.703Z,26.30
2022-12-14T20:35:06.309Z,20.50
2022-12-14T20:37:33.611Z,18.98
2022-12-14T20:40:00.990Z,19.88
2022-12-14T20:42:28.320Z,19.00
2022-12-14T20:44:57.085Z,19.17
2022-12-14T20:47:24.401Z,23.83
2022-12-14T20:49:53.989Z,28.42
2022-12-14T20:52:21.357Z,24.55
2022-12-14T20:54:49.047Z,29.65
2022-12-14T20:57:16.483Z,28.73
2022-12-14T20:59:43.742Z,32.78
2022-12-14T21:02:17.036Z,29.55
2022-12-14T21:04:44.552Z,28.80
2022-12-14T21:07:12.170Z,34.72
2022-12-14T21:09:39.575Z,27.85
2022-12-14T21:12:20.937Z,26.50
2022-12-14T21:14:52.970Z,29.63
2022-12-14T21:17:25.891Z,28.83
2022-12-14T21:19:58.418Z,32.20
2022-12-14T21:22:30.849Z,30.25
2022-12-14T21:25:03.757Z,36.85
2022-12-14T21:27:33.615Z,36.03
2022-12-14T21:30:01.121Z,32.60
2022-12-14T21:32:29.103Z,32.65
2022-12-14T21:34:56.836Z,29.50
2022-12-14T21:37:26.517Z,34.83
2022-12-14T21:39:56.165Z,36.97
2022-12-14T21:42:24.650Z,39.42
2022-12-14T21:44:53.601Z,42.22
2022-12-14T21:47:24.378Z,45.15
2022-12-14T21:49:52.054Z,34.60
2022-12-14T21:52:22.934Z,31.48
2022-12-14T21:54:50.576Z,32.30
2022-12-14T21:57:49.845Z,30.92
2022-12-14T22:00:19.104Z,21.83
2022-12-14T22:02:49.889Z,23.87
2022-12-14T22:05:42.952Z,23.27
2022-12-14T22:08:10.617Z,23.92
2022-12-14T22:10:47.144Z,23.10
2022-12-14T22:16:08.671Z,29.27
2022-12-14T22:18:36.311Z,30.35
2022-12-14T22:21:09.074Z,30.90
2022-12-14T22:23:43.373Z,29.85
2022-12-14T22:26:11.310Z,31.48
2022-12-14T22:28:38.549Z,34.60
2022-12-14T22:31:06.334Z,33.60
2022-12-14T22:33:34.371Z,32.05
2022-12-14T22:36:10.740Z,34.45
2022-12-14T22:38:38.154Z,30.70
2022-12-14T22:41:05.983Z,30.38
2022-12-14T22:43:36.966Z,30.10
2022-12-14T22:46:05.475Z,22.85
2022-12-14T22:48:34.753Z,21.77
2022-12-14T22:51:04.886Z,22.98
2022-12-14T22:53:32.604Z,21.83
2022-12-14T22:56:11.272Z,28.00
2022-12-14T22:58:40.945Z,29.50
2022-12-14T23:01:08.494Z,25.30
2022-12-14T23:03:36.464Z,26.10
2022-12-14T23:06:04.545Z,26.20
2022-12-14T23:08:32.216Z,24.48
2022-12-14T23:11:18.091Z,23.88
2022-12-14T23:14:04.132Z,22.48
2022-12-14T23:16:50.352Z,23.53
2022-12-14T23:19:36.159Z,26.05
2022-12-14T23:22:25.545Z,25.85
2022-12-14T23:25:11.606Z,26.48
2022-12-14T23:27:57.776Z,21.90
2022-12-14T23:30:43.522Z,23.88
2022-12-14T23:33:29.776Z,26.92
2022-12-14T23:36:19.922Z,22.98
2022-12-14T23:39:05.913Z,21.88
2022-12-14T23:41:51.910Z,23.55
2022-12-14T23:44:38.003Z,23.13
2022-12-14T23:47:24.103Z,23.17
2022-12-14T23:50:09.958Z,22.38
2022-12-14T23:52:55.961Z,23.83
2022-12-14T23:55:41.710Z,24.07
2022-12-14T23:58:28.242Z,21.38
